createdAt,value
2018-04-18T00:00:04.729Z,99.99
2018-04-18T00:01:04.607Z,99.99
2018-04-18T00:02:04.516Z,99.99
2018-04-18T00:03:04.422Z,99.99
2018-04-18T00:04:04.330Z,99.99
2018-04-18T00:05:04.268Z,99.99
2018-04-18T00:06:04.147Z,99.99
2018-04-18T00:07:04.051Z,99.99
2018-04-18T00:08:03.966Z,99.99
2018-04-18T00:09:03.869Z,99.99
2018-04-18T00:10:03.810Z,99.99
2018-04-18T00:11:03.687Z,99.99
2018-04-18T00:12:03.595Z,99.99
2018-04-18T00:13:03.505Z,99.99
2018-04-18T00:14:03.408Z,99.99
2018-04-18T00:15:03.352Z,99.99
2018-04-18T00:16:03.220Z,99.99
2018-04-18T00:17:03.131Z,99.99
2018-04-18T00:18:03.035Z,99.99
2018-04-18T00:19:02.948Z,99.99
2018-04-18T00:20:02.879Z,99.99
2018-04-18T00:21:02.760Z,99.99
2018-04-18T00:22:02.669Z,99.99
2018-04-18T00:23:02.577Z,99.99
2018-04-18T00:24:02.483Z,99.99
2018-04-18T00:25:02.423Z,99.99
2018-04-18T00:26:02.300Z,99.99
2018-04-18T00:27:02.207Z,99.99
2018-04-18T00:28:02.117Z,99.99
2018-04-18T00:29:02.024Z,99.99
2018-04-18T00:30:01.960Z,99.99
2018-04-18T00:31:01.837Z,99.99
2018-04-18T00:32:01.746Z,99.99
2018-04-18T00:33:01.655Z,99.99
2018-04-18T00:34:01.560Z,99.99
2018-04-18T00:35:01.494Z,99.99
2018-04-18T00:36:01.375Z,99.99
2018-04-18T00:37:01.283Z,99.99
2018-04-18T00:38:01.190Z,99.99
2018-04-18T00:39:01.100Z,99.99
2018-04-18T00:40:01.037Z,99.99
2018-04-18T00:41:00.913Z,99.99
2018-04-18T00:42:00.823Z,99.99
2018-04-18T00:43:01.032Z,99.99
2018-04-18T00:44:00.636Z,99.99
2018-04-18T00:45:00.578Z,99.99
2018-04-18T00:46:00.454Z,99.99
2018-04-18T00:47:00.359Z,99.99
2018-04-18T00:48:00.267Z,99.99
2018-04-18T00:49:00.174Z,99.99
2018-04-18T00:50:00.115Z,99.99
2018-04-18T00:51:00.007Z,99.99
2018-04-18T00:51:59.898Z,99.99
2018-04-18T00:52:59.806Z,99.99
2018-04-18T00:53:59.810Z,99.99
2018-04-18T00:54:59.651Z,99.99
2018-04-18T00:55:59.526Z,99.99
2018-04-18T00:56:59.438Z,99.99
2018-04-18T00:57:59.345Z,99.99
2018-04-18T00:58:59.249Z,99.99
2018-04-18T00:59:59.189Z,99.99
2018-04-18T01:00:59.065Z,99.99
2018-04-18T01:01:59.065Z,99.99
2018-04-18T01:02:58.880Z,99.99
2018-04-18T01:03:58.791Z,99.99
2018-04-18T01:04:58.725Z,99.99
2018-04-18T01:05:58.606Z,99.99
2018-04-18T01:06:58.510Z,99.99
2018-04-18T01:07:58.420Z,99.99
2018-04-18T01:08:58.327Z,99.99
2018-04-18T01:09:58.264Z,99.99
2018-04-18T01:10:58.154Z,99.99
2018-04-18T01:11:58.050Z,99.99
2018-04-18T01:12:57.957Z,99.99
2018-04-18T01:13:57.864Z,99.99
2018-04-18T01:14:57.802Z,99.99
2018-04-18T01:15:57.677Z,99.99
2018-04-18T01:16:57.588Z,99.99
2018-04-18T01:17:57.494Z,99.99
2018-04-18T01:18:57.402Z,99.99
2018-04-18T01:19:57.342Z,99.99
2018-04-18T01:20:57.217Z,99.99
2018-04-18T01:21:57.125Z,99.99
2018-04-18T01:22:57.030Z,99.99
2018-04-18T01:23:56.937Z,99.99
2018-04-18T01:24:56.876Z,99.99
2018-04-18T01:25:56.754Z,99.99
2018-04-18T01:26:56.659Z,99.99
2018-04-18T01:27:56.570Z,99.99
2018-04-18T01:28:56.475Z,99.99
2018-04-18T01:29:56.409Z,99.99
2018-04-18T01:30:56.290Z,99.99
2018-04-18T01:31:56.199Z,99.99
2018-04-18T01:32:56.106Z,99.99
2018-04-18T01:33:56.015Z,99.99
2018-04-18T01:34:55.949Z,99.99
2018-04-18T01:35:55.827Z,99.99
2018-04-18T01:36:55.734Z,99.99
2018-04-18T01:37:55.640Z,99.99
2018-04-18T01:38:55.549Z,99.99
2018-04-18T01:39:55.486Z,99.99
2018-04-18T01:40:55.363Z,99.99
2018-04-18T01:41:55.268Z,99.99
2018-04-18T01:42:55.177Z,99.99
2018-04-18T01:43:55.087Z,99.99
2018-04-18T01:44:55.021Z,99.99
2018-04-18T01:45:54.901Z,99.99
2018-04-18T01:46:54.806Z,99.99
2018-04-18T01:47:54.713Z,99.99
2018-04-18T01:48:54.622Z,99.99
2018-04-18T01:49:54.532Z,99.99
2018-04-18T01:50:54.466Z,99.99
2018-04-18T01:51:54.344Z,99.99
2018-04-18T01:52:54.250Z,99.99
2018-04-18T01:53:54.160Z,99.99
2018-04-18T01:54:54.095Z,99.99
2018-04-18T01:55:53.970Z,99.99
2018-04-18T01:56:53.879Z,99.99
2018-04-18T01:57:53.786Z,99.99
2018-04-18T01:58:53.692Z,99.99
2018-04-18T01:59:53.602Z,99.99
2018-04-18T02:00:53.538Z,99.99
2018-04-18T02:01:53.426Z,99.99
2018-04-18T02:02:53.324Z,99.99
2018-04-18T02:03:53.230Z,99.99
2018-04-18T02:04:53.139Z,99.99
2018-04-18T02:05:53.075Z,99.99
2018-04-18T02:06:52.952Z,99.99
2018-04-18T02:07:52.856Z,99.99
2018-04-18T02:08:52.767Z,99.99
2018-04-18T02:09:52.674Z,99.99
2018-04-18T02:10:52.606Z,99.99
2018-04-18T02:11:52.490Z,99.99
2018-04-18T02:12:52.394Z,99.99
2018-04-18T02:13:52.301Z,99.99
2018-04-18T02:14:52.208Z,99.99
2018-04-18T02:15:52.146Z,99.99
2018-04-18T02:16:52.018Z,99.99
2018-04-18T02:17:51.929Z,99.99
2018-04-18T02:18:51.833Z,99.99
2018-04-18T02:19:51.744Z,99.99
2018-04-18T02:20:51.683Z,99.99
2018-04-18T02:21:51.555Z,99.99
2018-04-18T02:22:51.467Z,99.99
2018-04-18T02:23:51.379Z,99.99
2018-04-18T02:24:51.282Z,99.99
2018-04-18T02:25:51.217Z,99.99
2018-04-18T02:26:51.094Z,99.99
2018-04-18T02:27:51.002Z,99.99
2018-04-18T02:28:50.911Z,99.99
2018-04-18T02:29:50.816Z,99.99
2018-04-18T02:30:50.756Z,99.99
2018-04-18T02:31:50.724Z,99.99
2018-04-18T02:32:50.545Z,99.99
2018-04-18T02:33:50.447Z,99.99
2018-04-18T02:34:50.352Z,99.99
2018-04-18T02:35:50.290Z,99.99
2018-04-18T02:36:50.166Z,99.99
2018-04-18T02:37:50.075Z,99.99
2018-04-18T02:38:49.982Z,99.99
2018-04-18T02:39:49.889Z,99.99
2018-04-18T02:40:49.830Z,99.99
2018-04-18T02:41:49.710Z,99.99
2018-04-18T02:42:49.614Z,99.99
2018-04-18T02:43:49.517Z,99.99
2018-04-18T02:44:49.431Z,99.99
2018-04-18T02:45:49.460Z,99.99
2018-04-18T02:46:49.240Z,99.99
2018-04-18T02:47:49.152Z,99.99
2018-04-18T02:48:49.083Z,99.99
2018-04-18T02:49:48.967Z,99.99
2018-04-18T02:50:48.900Z,99.99
2018-04-18T02:51:48.779Z,99.99
2018-04-18T02:52:48.774Z,99.99
2018-04-18T02:53:48.592Z,99.99
2018-04-18T02:54:48.501Z,99.99
2018-04-18T02:55:48.436Z,99.99
2018-04-18T02:56:48.316Z,99.99
2018-04-18T02:57:48.222Z,99.99
2018-04-18T02:58:48.128Z,99.99
2018-04-18T02:59:48.135Z,99.99
2018-04-18T03:00:47.978Z,99.99
2018-04-18T03:01:47.857Z,99.99
2018-04-18T03:02:47.763Z,99.99
2018-04-18T03:03:47.669Z,99.99
2018-04-18T03:04:47.576Z,99.99
2018-04-18T03:05:47.516Z,99.99
2018-04-18T03:06:47.485Z,99.99
2018-04-18T03:07:47.299Z,99.99
2018-04-18T03:08:47.208Z,99.99
2018-04-18T03:09:47.114Z,99.99
2018-04-18T03:10:47.052Z,99.99
2018-04-18T03:11:46.928Z,99.99
2018-04-18T03:12:46.838Z,99.99
2018-04-18T03:13:46.846Z,99.99
2018-04-18T03:14:46.648Z,99.99
2018-04-18T03:15:46.589Z,99.99
2018-04-18T03:16:46.466Z,99.99
2018-04-18T03:17:46.372Z,99.99
2018-04-18T03:18:46.281Z,99.99
2018-04-18T03:19:46.189Z,99.99
2018-04-18T03:20:46.215Z,99.99
2018-04-18T03:21:46.002Z,99.99
2018-04-18T03:22:45.910Z,99.99
2018-04-18T03:23:45.822Z,99.99
2018-04-18T03:24:45.723Z,99.99
2018-04-18T03:25:45.661Z,99.99
2018-04-18T03:26:45.547Z,99.99
2018-04-18T03:27:45.542Z,99.99
2018-04-18T03:28:45.354Z,99.99
2018-04-18T03:29:45.266Z,99.99
2018-04-18T03:30:45.201Z,99.99
2018-04-18T03:31:45.078Z,99.99
2018-04-18T03:32:44.986Z,99.99
2018-04-18T03:33:44.893Z,99.99
2018-04-18T03:34:44.891Z,99.99
2018-04-18T03:35:44.737Z,99.99
2018-04-18T03:36:44.618Z,99.99
2018-04-18T03:37:44.525Z,99.99
2018-04-18T03:38:44.430Z,99.99
2018-04-18T03:39:44.336Z,99.99
2018-04-18T03:40:44.279Z,99.99
2018-04-18T03:41:44.244Z,99.99
2018-04-18T03:42:44.058Z,99.99
2018-04-18T03:43:43.968Z,99.99
2018-04-18T03:44:43.869Z,99.99
2018-04-18T03:45:43.811Z,99.99
2018-04-18T03:46:43.686Z,99.99
2018-04-18T03:47:43.594Z,99.99
2018-04-18T03:48:43.596Z,99.99
2018-04-18T03:49:43.407Z,99.99
2018-04-18T03:50:43.353Z,99.99
2018-04-18T03:51:43.222Z,99.99
2018-04-18T03:52:43.129Z,99.99
2018-04-18T03:53:43.037Z,99.99
2018-04-18T03:54:42.947Z,99.99
2018-04-18T03:55:42.880Z,99.99
2018-04-18T03:56:42.761Z,99.99
2018-04-18T03:57:42.663Z,99.99
2018-04-18T03:58:42.571Z,99.99
2018-04-18T03:59:42.479Z,99.99
2018-04-18T04:00:42.414Z,99.99
2018-04-18T04:01:42.293Z,99.99
2018-04-18T04:02:42.197Z,99.99
2018-04-18T04:03:42.107Z,99.99
2018-04-18T04:04:42.015Z,99.99
2018-04-18T04:05:41.950Z,99.99
2018-04-18T04:06:41.828Z,99.99
2018-04-18T04:07:41.734Z,99.99
2018-04-18T04:08:41.641Z,99.99
2018-04-18T04:09:41.548Z,99.99
2018-04-18T04:10:41.482Z,99.99
2018-04-18T04:11:41.362Z,99.99
2018-04-18T04:12:41.268Z,99.99
2018-04-18T04:13:41.175Z,99.99
2018-04-18T04:14:41.099Z,99.99
2018-04-18T04:15:40.991Z,99.99
2018-04-18T04:16:40.924Z,99.99
2018-04-18T04:17:40.807Z,99.99
2018-04-18T04:18:40.709Z,99.99
2018-04-18T04:19:40.618Z,99.99
2018-04-18T04:20:40.527Z,99.99
2018-04-18T04:21:40.459Z,99.99
2018-04-18T04:22:40.339Z,99.99
2018-04-18T04:23:40.242Z,99.99
2018-04-18T04:24:40.163Z,99.99
2018-04-18T04:25:40.057Z,99.99
2018-04-18T04:26:39.992Z,99.99
2018-04-18T04:27:39.867Z,99.99
2018-04-18T04:28:39.775Z,99.99
2018-04-18T04:29:39.682Z,99.99
2018-04-18T04:30:39.594Z,99.99
2018-04-18T04:31:39.526Z,99.99
2018-04-18T04:32:39.402Z,99.99
2018-04-18T04:33:39.311Z,99.99
2018-04-18T04:34:39.228Z,99.99
2018-04-18T04:35:39.122Z,99.99
2018-04-18T04:36:39.057Z,99.99
2018-04-18T04:37:38.935Z,99.99
2018-04-18T04:38:38.844Z,99.99
2018-04-18T04:39:38.750Z,99.99
2018-04-18T04:40:38.658Z,99.99
2018-04-18T04:41:38.594Z,99.99
2018-04-18T04:42:38.468Z,99.99
2018-04-18T04:43:38.376Z,99.99
2018-04-18T04:44:38.298Z,99.99
2018-04-18T04:45:38.189Z,99.99
2018-04-18T04:46:38.128Z,99.99
2018-04-18T04:47:38.003Z,99.99
2018-04-18T04:48:37.911Z,99.99
2018-04-18T04:49:37.818Z,99.99
2018-04-18T04:50:37.723Z,99.99
2018-04-18T04:51:37.662Z,99.99
2018-04-18T04:52:37.536Z,99.99
2018-04-18T04:53:37.442Z,99.99
2018-04-18T04:54:37.349Z,99.99
2018-04-18T04:55:37.256Z,99.99
2018-04-18T04:56:37.193Z,99.99
2018-04-18T04:57:37.073Z,99.99
2018-04-18T04:58:36.979Z,99.99
2018-04-18T04:59:36.884Z,99.99
2018-04-18T05:00:36.797Z,99.99
2018-04-18T05:01:36.727Z,99.99
2018-04-18T05:02:36.624Z,99.99
2018-04-18T05:03:36.512Z,99.99
2018-04-18T05:04:36.420Z,99.99
2018-04-18T05:05:36.327Z,99.99
2018-04-18T05:06:36.266Z,99.99
2018-04-18T05:07:36.140Z,99.99
2018-04-18T05:08:36.047Z,99.99
2018-04-18T05:09:35.957Z,99.99
2018-04-18T05:10:35.863Z,99.99
2018-04-18T05:11:35.886Z,99.99
2018-04-18T05:12:35.678Z,99.99
2018-04-18T05:13:35.589Z,99.99
2018-04-18T05:14:35.495Z,99.99
2018-04-18T05:15:35.399Z,99.99
2018-04-18T05:16:35.339Z,99.99
2018-04-18T05:17:35.219Z,99.99
2018-04-18T05:18:35.225Z,99.99
2018-04-18T05:19:35.037Z,99.99
2018-04-18T05:20:34.947Z,99.99
2018-04-18T05:21:34.883Z,99.99
2018-04-18T05:22:34.761Z,99.99
2018-04-18T05:23:34.673Z,99.99
2018-04-18T05:24:34.582Z,99.99
2018-04-18T05:25:34.579Z,99.99
2018-04-18T05:26:34.429Z,99.99
2018-04-18T05:27:34.308Z,99.99
2018-04-18T05:28:34.220Z,99.99
2018-04-18T05:29:34.126Z,99.99
2018-04-18T05:30:34.039Z,99.99
2018-04-18T05:31:33.976Z,99.99
2018-04-18T05:32:33.955Z,99.99
2018-04-18T05:33:33.769Z,99.99
2018-04-18T05:34:33.686Z,99.99
2018-04-18T05:35:33.588Z,99.99
2018-04-18T05:36:33.528Z,99.99
2018-04-18T05:37:33.414Z,99.99
2018-04-18T05:38:33.319Z,99.99
2018-04-18T05:39:33.325Z,99.99
2018-04-18T05:40:33.145Z,99.99
2018-04-18T05:41:33.054Z,99.99
2018-04-18T05:42:32.998Z,99.43
2018-04-18T05:43:32.879Z,99.99
2018-04-18T05:44:32.813Z,99.23
2018-04-18T05:45:32.700Z,99.76
2018-04-18T05:46:32.741Z,99.85
2018-04-18T05:47:32.556Z,99.38
2018-04-18T05:48:32.437Z,98.99
2018-04-18T05:49:32.349Z,99.19
2018-04-18T05:50:32.262Z,98.71
2018-04-18T05:51:32.175Z,99.19
2018-04-18T05:52:32.113Z,98.99
2018-04-18T05:53:32.091Z,99.19
2018-04-18T05:54:31.905Z,98.52
2018-04-18T05:55:31.852Z,99.52
2018-04-18T05:56:31.737Z,99.62
2018-04-18T05:57:31.674Z,99.99
2018-04-18T05:58:31.554Z,99.71
2018-04-18T05:59:31.469Z,99.99
2018-04-18T06:00:31.478Z,99.71
2018-04-18T06:01:31.293Z,99.90
2018-04-18T06:02:31.238Z,99.95
2018-04-18T06:03:31.120Z,99.19
2018-04-18T06:04:31.033Z,98.90
2018-04-18T06:05:30.946Z,99.66
2018-04-18T06:06:30.857Z,99.57
2018-04-18T06:07:30.890Z,99.66
2018-04-18T06:08:30.698Z,99.04
2018-04-18T06:09:30.599Z,98.38
2018-04-18T06:10:30.512Z,98.43
2018-04-18T06:11:30.424Z,99.00
2018-04-18T06:12:30.369Z,97.08
2018-04-18T06:13:30.251Z,96.66
2018-04-18T06:14:30.163Z,96.47
2018-04-18T06:15:30.080Z,95.84
2018-04-18T06:16:29.989Z,95.56
2018-04-18T06:17:29.934Z,94.69
2018-04-18T06:18:29.817Z,94.21
2018-04-18T06:19:29.731Z,93.40
2018-04-18T06:20:29.645Z,93.78
2018-04-18T06:21:29.558Z,94.84
2018-04-18T06:22:29.501Z,93.98
2018-04-18T06:23:29.386Z,93.69
2018-04-18T06:24:29.300Z,93.44
2018-04-18T06:25:29.216Z,92.49
2018-04-18T06:26:29.133Z,91.63
2018-04-18T06:27:29.077Z,91.57
2018-04-18T06:28:28.958Z,91.48
2018-04-18T06:29:28.874Z,90.08
2018-04-18T06:30:28.789Z,90.85
2018-04-18T06:31:28.701Z,89.61
2018-04-18T06:32:28.651Z,87.35
2018-04-18T06:33:28.538Z,87.15
2018-04-18T06:34:28.452Z,86.48
2018-04-18T06:35:28.368Z,85.57
2018-04-18T06:36:28.280Z,83.07
2018-04-18T06:37:28.226Z,80.13
2018-04-18T06:38:28.113Z,79.36
2018-04-18T06:39:28.030Z,80.76
2018-04-18T06:40:27.942Z,79.90
2018-04-18T06:41:27.864Z,78.45
2018-04-18T06:42:27.813Z,79.03
2018-04-18T06:43:27.692Z,79.99
2018-04-18T06:44:27.614Z,80.19
2018-04-18T06:45:27.531Z,79.17
2018-04-18T06:46:27.442Z,78.84
2018-04-18T06:47:27.392Z,78.94
2018-04-18T06:48:27.279Z,80.86
2018-04-18T06:49:27.196Z,78.69
2018-04-18T06:50:27.113Z,77.78
2018-04-18T06:51:27.031Z,78.27
2018-04-18T06:52:26.980Z,79.52
2018-04-18T06:53:26.867Z,78.42
2018-04-18T06:54:26.782Z,79.86
2018-04-18T06:55:26.703Z,79.67
2018-04-18T06:56:26.903Z,81.68
2018-04-18T06:57:26.567Z,80.66
2018-04-18T06:58:26.455Z,78.17
2018-04-18T06:59:26.369Z,76.15
2018-04-18T07:00:26.288Z,75.87
2018-04-18T07:01:26.205Z,77.88
2018-04-18T07:02:26.150Z,81.34
2018-04-18T07:03:26.096Z,78.42
2018-04-18T07:04:25.959Z,76.25
2018-04-18T07:05:25.875Z,77.59
2018-04-18T07:06:25.795Z,77.69
2018-04-18T07:07:25.742Z,76.92
2018-04-18T07:08:25.632Z,81.63
2018-04-18T07:09:25.575Z,75.81
2018-04-18T07:10:25.461Z,74.65
2018-04-18T07:11:25.380Z,75.75
2018-04-18T07:12:25.334Z,72.06
2018-04-18T07:13:25.217Z,73.02
2018-04-18T07:14:25.136Z,72.73
2018-04-18T07:15:25.062Z,71.61
2018-04-18T07:16:24.974Z,70.84
2018-04-18T07:17:24.924Z,72.16
2018-04-18T07:18:24.807Z,72.58
2018-04-18T07:19:24.727Z,73.83
2018-04-18T07:20:24.647Z,71.94
2018-04-18T07:21:24.609Z,70.84
2018-04-18T07:22:24.513Z,69.31
2018-04-18T07:23:24.400Z,69.44
2018-04-18T07:24:24.318Z,69.02
2018-04-18T07:25:24.238Z,69.60
2018-04-18T07:26:24.873Z,70.01
2018-04-18T07:27:24.102Z,68.86
2018-04-18T07:28:23.994Z,70.40
2018-04-18T07:29:23.914Z,70.30
2018-04-18T07:30:23.831Z,70.17
2018-04-18T07:31:23.751Z,68.83
2018-04-18T07:32:23.669Z,70.68
2018-04-18T07:33:23.618Z,72.80
2018-04-18T07:34:23.540Z,73.38
2018-04-18T07:35:23.426Z,68.80
2018-04-18T07:36:23.345Z,70.01
2018-04-18T07:37:23.296Z,70.88
2018-04-18T07:38:23.182Z,70.01
2018-04-18T07:39:23.104Z,67.65
2018-04-18T07:40:23.018Z,70.66
2018-04-18T07:41:22.940Z,69.76
2018-04-18T07:42:22.863Z,69.67
2018-04-18T07:43:22.808Z,68.54
2018-04-18T07:44:22.695Z,67.10
2018-04-18T07:45:22.617Z,66.75
2018-04-18T07:46:22.532Z,66.85
2018-04-18T07:47:22.460Z,64.53
2018-04-18T07:48:22.406Z,66.59
2018-04-18T07:49:22.310Z,66.78
2018-04-18T07:50:22.213Z,67.33
2018-04-18T07:51:22.133Z,68.00
2018-04-18T07:52:22.055Z,67.36
2018-04-18T07:53:26.314Z,67.90
2018-04-18T07:54:21.892Z,68.32
2018-04-18T07:55:21.812Z,70.05
2018-04-18T07:56:21.735Z,69.51
2018-04-18T07:57:21.658Z,69.22
2018-04-18T07:58:21.606Z,69.60
2018-04-18T07:59:21.493Z,68.77
2018-04-18T08:00:21.439Z,67.90
2018-04-18T08:01:21.334Z,67.71
2018-04-18T08:02:21.251Z,69.64
2018-04-18T08:03:21.203Z,70.31
2018-04-18T08:04:21.095Z,72.49
2018-04-18T08:05:21.014Z,72.20
2018-04-18T08:06:20.936Z,69.06
2018-04-18T08:07:20.856Z,70.60
2018-04-18T08:08:20.807Z,66.69
2018-04-18T08:09:20.694Z,68.52
2018-04-18T08:10:20.617Z,67.40
2018-04-18T08:11:20.537Z,67.23
2018-04-18T08:12:20.459Z,65.08
2018-04-18T08:13:20.515Z,66.24
2018-04-18T08:14:20.297Z,64.11
2018-04-18T08:15:20.278Z,64.92
2018-04-18T08:16:20.138Z,63.37
2018-04-18T08:17:20.063Z,66.66
2018-04-18T08:18:20.010Z,68.77
2018-04-18T08:19:19.903Z,63.28
2018-04-18T08:20:19.916Z,63.09
2018-04-18T08:21:19.745Z,61.47
2018-04-18T08:22:19.664Z,62.34
2018-04-18T08:23:19.616Z,62.08
2018-04-18T08:24:19.510Z,60.25
2018-04-18T08:25:19.435Z,57.48
2018-04-18T08:26:19.351Z,59.80
2018-04-18T08:27:19.367Z,63.37
2018-04-18T08:28:19.223Z,59.99
2018-04-18T08:29:19.116Z,60.79
2018-04-18T08:30:19.039Z,57.70
2018-04-18T08:31:18.960Z,58.50
2018-04-18T08:32:18.882Z,55.77
2018-04-18T08:33:18.835Z,57.63
2018-04-18T08:34:18.816Z,55.60
2018-04-18T08:35:18.650Z,55.89
2018-04-18T08:36:18.571Z,56.76
2018-04-18T08:37:18.493Z,56.67
2018-04-18T08:38:18.446Z,55.15
2018-04-18T08:39:18.337Z,53.09
2018-04-18T08:40:18.258Z,55.60
2018-04-18T08:41:18.277Z,55.82
2018-04-18T08:42:18.108Z,55.43
2018-04-18T08:43:18.057Z,54.57
2018-04-18T08:44:17.955Z,54.85
2018-04-18T08:45:17.873Z,53.41
2018-04-18T08:46:17.795Z,52.82
2018-04-18T08:47:17.720Z,56.09
2018-04-18T08:48:17.765Z,55.68
2018-04-18T08:49:17.564Z,58.70
2018-04-18T08:50:17.489Z,55.83
2018-04-18T08:51:17.414Z,55.65
2018-04-18T08:52:17.334Z,55.87
2018-04-18T08:53:17.292Z,55.82
2018-04-18T08:54:17.183Z,55.11
2018-04-18T08:55:17.200Z,53.79
2018-04-18T08:56:17.028Z,54.85
2018-04-18T08:57:16.952Z,55.43
2018-04-18T08:58:16.902Z,53.43
2018-04-18T08:59:16.799Z,53.04
2018-04-18T09:00:16.725Z,52.24
2018-04-18T09:01:16.644Z,54.05
2018-04-18T09:02:16.673Z,52.92
2018-04-18T09:03:16.521Z,55.11
2018-04-18T09:04:16.416Z,56.02
2018-04-18T09:05:16.341Z,55.82
2018-04-18T09:06:16.263Z,52.17
2018-04-18T09:07:16.184Z,51.74
2018-04-18T09:08:16.144Z,51.84
2018-04-18T09:09:16.126Z,49.92
2018-04-18T09:10:15.957Z,51.20
2018-04-18T09:11:15.879Z,50.84
2018-04-18T09:12:15.804Z,51.74
2018-04-18T09:13:15.757Z,51.96
2018-04-18T09:14:15.650Z,50.99
2018-04-18T09:15:15.575Z,48.47
2018-04-18T09:16:15.592Z,47.60
2018-04-18T09:17:15.422Z,48.93
2018-04-18T09:18:15.377Z,49.44
2018-04-18T09:19:15.271Z,49.12
2018-04-18T09:20:15.195Z,48.90
2018-04-18T09:21:15.119Z,52.87
2018-04-18T09:22:15.044Z,52.73
2018-04-18T09:23:15.090Z,52.14
2018-04-18T09:24:14.893Z,50.55
2018-04-18T09:25:14.816Z,50.35
2018-04-18T09:26:14.741Z,50.62
2018-04-18T09:27:14.666Z,52.24
2018-04-18T09:28:14.620Z,49.39
2018-04-18T09:29:14.514Z,50.98
2018-04-18T09:30:14.531Z,52.67
2018-04-18T09:31:14.361Z,53.83
2018-04-18T09:32:14.285Z,53.63
2018-04-18T09:33:14.241Z,53.30
2018-04-18T09:34:14.133Z,51.13
2018-04-18T09:35:14.056Z,50.67
2018-04-18T09:36:13.979Z,50.89
2018-04-18T09:37:13.999Z,49.07
2018-04-18T09:38:13.858Z,49.12
2018-04-18T09:39:13.751Z,48.47
2018-04-18T09:40:13.680Z,51.06
2018-04-18T09:41:13.598Z,49.82
2018-04-18T09:42:13.521Z,46.24
2018-04-18T09:43:13.450Z,47.47
2018-04-18T09:44:13.400Z,46.94
2018-04-18T09:45:13.295Z,47.06
2018-04-18T09:46:13.264Z,47.89
2018-04-18T09:47:13.142Z,49.12
2018-04-18T09:48:13.070Z,49.02
2018-04-18T09:49:13.023Z,48.61
2018-04-18T09:50:12.914Z,50.04
2018-04-18T09:51:12.838Z,51.32
2018-04-18T09:52:12.765Z,51.35
2018-04-18T09:53:12.690Z,50.21
2018-04-18T09:54:12.644Z,48.71
2018-04-18T09:55:12.537Z,49.07
2018-04-18T09:56:12.460Z,48.90
2018-04-18T09:57:12.385Z,48.27
2018-04-18T09:58:12.312Z,48.01
2018-04-18T09:59:12.262Z,50.40
2018-04-18T10:00:12.155Z,51.87
2018-04-18T10:01:12.081Z,50.31
2018-04-18T10:02:12.001Z,50.55
2018-04-18T10:03:11.930Z,49.80
2018-04-18T10:04:11.884Z,50.18
2018-04-18T10:05:11.772Z,46.83
2018-04-18T10:06:11.699Z,49.15
2018-04-18T10:07:11.620Z,47.06
2018-04-18T10:08:11.544Z,46.77
2018-04-18T10:09:11.493Z,45.42
2018-04-18T10:10:11.394Z,44.76
2018-04-18T10:11:11.318Z,45.61
2018-04-18T10:12:11.237Z,49.02
2018-04-18T10:13:11.164Z,50.31
2018-04-18T10:14:11.132Z,47.62
2018-04-18T10:15:11.013Z,44.65
2018-04-18T10:16:10.952Z,44.97
2018-04-18T10:17:10.862Z,44.51
2018-04-18T10:18:10.783Z,43.80
2018-04-18T10:19:10.742Z,44.21
2018-04-18T10:20:10.632Z,44.58
2018-04-18T10:21:10.557Z,42.83
2018-04-18T10:22:10.485Z,44.60
2018-04-18T10:23:10.415Z,42.68
2018-04-18T10:24:10.360Z,42.35
2018-04-18T10:25:10.256Z,44.07
2018-04-18T10:26:10.178Z,46.23
2018-04-18T10:27:10.103Z,48.39
2018-04-18T10:28:10.034Z,49.15
2018-04-18T10:29:09.983Z,51.84
2018-04-18T10:30:09.880Z,47.57
2018-04-18T10:31:09.806Z,48.83
2018-04-18T10:32:09.730Z,48.85
2018-04-18T10:33:09.657Z,49.27
2018-04-18T10:34:09.611Z,49.17
2018-04-18T10:35:09.504Z,49.39
2018-04-18T10:36:09.440Z,48.30
2018-04-18T10:37:09.357Z,46.96
2018-04-18T10:38:09.289Z,48.64
2018-04-18T10:39:09.239Z,47.40
2018-04-18T10:40:09.134Z,45.75
2018-04-18T10:41:09.060Z,44.51
2018-04-18T10:42:08.983Z,44.00
2018-04-18T10:43:08.908Z,44.33
2018-04-18T10:44:08.861Z,41.51
2018-04-18T10:45:08.758Z,41.44
2018-04-18T10:46:08.684Z,44.26
2018-04-18T10:47:08.608Z,41.24
2018-04-18T10:48:08.540Z,39.00
2018-04-18T10:49:08.494Z,39.39
2018-04-18T10:50:08.390Z,40.56
2018-04-18T10:51:08.314Z,41.16
2018-04-18T10:52:08.241Z,42.81
2018-04-18T10:53:08.167Z,44.17
2018-04-18T10:54:08.124Z,42.44
2018-04-18T10:55:08.026Z,42.49
2018-04-18T10:56:07.946Z,41.22
2018-04-18T10:57:07.875Z,41.83
2018-04-18T10:58:07.797Z,40.27
2018-04-18T10:59:07.753Z,37.14
2018-04-18T11:00:07.743Z,37.04
2018-04-18T11:01:07.584Z,36.94
2018-04-18T11:02:07.504Z,37.84
2018-04-18T11:03:07.428Z,35.50
2018-04-18T11:04:07.383Z,35.50
2018-04-18T11:05:07.281Z,35.52
2018-04-18T11:06:07.212Z,34.84
2018-04-18T11:07:07.133Z,33.01
2018-04-18T11:08:07.066Z,35.03
2018-04-18T11:09:07.019Z,34.80
2018-04-18T11:10:06.913Z,35.78
2018-04-18T11:11:06.839Z,36.75
2018-04-18T11:12:06.765Z,37.43
2018-04-18T11:13:06.785Z,36.60
2018-04-18T11:14:06.648Z,38.09
2018-04-18T11:15:06.547Z,37.05
2018-04-18T11:16:06.469Z,37.03
2018-04-18T11:17:06.397Z,37.73
2018-04-18T11:18:06.329Z,40.92
2018-04-18T11:19:06.278Z,38.04
2018-04-18T11:20:06.271Z,37.45
2018-04-18T11:21:06.105Z,36.89
2018-04-18T11:22:06.030Z,36.73
2018-04-18T11:23:05.952Z,36.67
2018-04-18T11:24:05.910Z,35.41
2018-04-18T11:25:05.811Z,34.92
2018-04-18T11:26:05.729Z,34.24
2018-04-18T11:27:05.751Z,36.34
2018-04-18T11:28:05.585Z,37.34
2018-04-18T11:29:05.543Z,34.92
2018-04-18T11:30:05.436Z,35.13
2018-04-18T11:31:05.367Z,36.77
2018-04-18T11:32:05.291Z,39.86
2018-04-18T11:33:05.219Z,37.41
2018-04-18T11:34:05.247Z,38.19
2018-04-18T11:35:05.125Z,37.14
2018-04-18T11:36:04.997Z,38.46
2018-04-18T11:37:04.929Z,34.38
2018-04-18T11:38:04.848Z,32.08
2018-04-18T11:39:04.803Z,29.85
2018-04-18T11:40:04.704Z,29.85
2018-04-18T11:41:04.720Z,31.10
2018-04-18T11:42:04.555Z,31.87
2018-04-18T11:43:04.489Z,33.06
2018-04-18T11:44:04.410Z,31.50
2018-04-18T11:45:04.365Z,31.51
2018-04-18T11:46:04.259Z,34.80
2018-04-18T11:47:04.187Z,33.46
2018-04-18T11:48:04.207Z,36.65
2018-04-18T11:49:04.041Z,36.77
2018-04-18T11:50:03.990Z,34.72
2018-04-18T11:51:03.920Z,35.78
2018-04-18T11:52:03.819Z,38.21
2018-04-18T11:53:03.743Z,35.61
2018-04-18T11:54:03.671Z,33.26
2018-04-18T11:55:03.625Z,35.08
2018-04-18T11:56:03.523Z,38.03
2018-04-18T11:57:03.454Z,35.21
2018-04-18T11:58:03.374Z,35.42
2018-04-18T11:59:03.301Z,37.06
2018-04-18T12:00:03.259Z,36.67
2018-04-18T12:01:03.155Z,37.52
2018-04-18T12:02:03.078Z,35.66
2018-04-18T12:03:03.004Z,34.61
2018-04-18T12:04:02.932Z,33.83
2018-04-18T12:05:02.892Z,35.39
2018-04-18T12:06:02.784Z,36.30
2018-04-18T12:07:02.712Z,31.92
2018-04-18T12:08:02.640Z,32.31
2018-04-18T12:09:02.580Z,34.32
2018-04-18T12:10:02.520Z,34.43
2018-04-18T12:11:02.418Z,32.78
2018-04-18T12:12:02.344Z,33.07
2018-04-18T12:13:02.270Z,31.34
2018-04-18T12:14:02.196Z,31.90
2018-04-18T12:15:02.150Z,30.44
2018-04-18T12:16:02.049Z,31.24
2018-04-18T12:17:01.979Z,30.26
2018-04-18T12:18:01.902Z,30.85
2018-04-18T12:19:01.825Z,30.46
2018-04-18T12:20:01.785Z,31.25
2018-04-18T12:21:01.678Z,29.99
2018-04-18T12:22:01.604Z,29.71
2018-04-18T12:23:01.529Z,29.13
2018-04-18T12:24:01.455Z,29.82
2018-04-18T12:25:01.411Z,30.47
2018-04-18T12:26:01.308Z,30.57
2018-04-18T12:27:01.237Z,30.94
2018-04-18T12:28:01.163Z,32.59
2018-04-18T12:29:01.084Z,32.39
2018-04-18T12:30:01.047Z,32.28
2018-04-18T12:31:00.939Z,29.76
2018-04-18T12:32:00.865Z,29.97
2018-04-18T12:33:00.793Z,31.25
2018-04-18T12:34:00.717Z,32.20
2018-04-18T12:35:00.670Z,32.02
2018-04-18T12:36:00.571Z,32.59
2018-04-18T12:37:00.500Z,32.59
2018-04-18T12:38:00.422Z,32.87
2018-04-18T12:39:00.347Z,31.81
2018-04-18T12:40:00.305Z,31.73
2018-04-18T12:41:00.204Z,30.54
2018-04-18T12:42:00.126Z,29.97
2018-04-18T12:43:00.050Z,30.74
2018-04-18T12:43:59.978Z,31.22
2018-04-18T12:44:59.934Z,31.61
2018-04-18T12:45:59.828Z,30.04
2018-04-18T12:46:59.756Z,31.22
2018-04-18T12:47:59.680Z,29.57
2018-04-18T12:48:59.609Z,30.54
2018-04-18T12:49:59.563Z,29.54
2018-04-18T12:50:59.458Z,31.94